createdAt,value
2022-10-11T00:00:17.941Z,3.25
2022-10-11T00:02:45.584Z,3.15
2022-10-11T00:05:13.478Z,3.08
2022-10-11T00:07:41.453Z,2.53
2022-10-11T00:10:09.676Z,3.05
2022-10-11T00:12:37.909Z,1.92
2022-10-11T00:15:06.327Z,2.78
2022-10-11T00:17:34.685Z,3.13
2022-10-11T00:20:04.086Z,3.08
2022-10-11T00:22:31.893Z,3.00
2022-10-11T00:24:59.686Z,3.20
2022-10-11T00:27:27.616Z,2.90
2022-10-11T00:29:55.616Z,3.20
2022-10-11T00:32:23.327Z,2.72
2022-10-11T00:34:52.161Z,2.70
2022-10-11T00:37:20.276Z,2.38
2022-10-11T00:39:47.956Z,2.08
2022-10-11T00:42:16.809Z,2.60
2022-10-11T00:44:46.678Z,2.45
2022-10-11T00:47:21.483Z,2.15
2022-10-11T00:49:59.547Z,1.58
2022-10-11T00:52:31.927Z,2.60
2022-10-11T00:55:05.260Z,2.00
2022-10-11T00:57:35.127Z,2.17
2022-10-11T01:00:03.356Z,2.40
2022-10-11T01:02:31.241Z,2.13
2022-10-11T01:05:25.242Z,2.70
2022-10-11T01:07:47.286Z,2.30
2022-10-11T01:10:14.995Z,2.85
2022-10-11T01:13:06.289Z,2.33
2022-10-11T01:15:37.444Z,2.35
2022-10-11T01:18:21.998Z,1.95
2022-10-11T01:21:00.591Z,2.13
2022-10-11T01:23:56.301Z,2.35
2022-10-11T01:26:42.097Z,2.35
2022-10-11T01:29:21.759Z,2.60
2022-10-11T01:32:15.457Z,2.20
2022-10-11T01:34:56.171Z,2.55
2022-10-11T01:37:47.851Z,2.88
2022-10-11T01:40:19.933Z,3.85
2022-10-11T01:42:47.512Z,4.22
2022-10-11T01:45:16.371Z,2.70
2022-10-11T01:47:45.968Z,2.30
2022-10-11T01:50:43.566Z,2.50
2022-10-11T01:53:39.675Z,2.53
2022-10-11T01:56:28.924Z,2.05
2022-10-11T01:59:11.348Z,2.53
2022-10-11T02:01:57.375Z,2.30
2022-10-11T02:04:30.480Z,2.42
2022-10-11T02:07:24.518Z,2.55
2022-10-11T02:10:05.952Z,2.03
2022-10-11T02:12:39.868Z,2.47
2022-10-11T02:15:09.339Z,2.30
2022-10-11T02:17:40.947Z,2.25
2022-10-11T02:20:11.940Z,2.15
2022-10-11T02:22:41.096Z,2.22
2022-10-11T02:25:10.876Z,2.20
2022-10-11T02:27:39.414Z,2.30
2022-10-11T02:30:08.165Z,2.10
2022-10-11T02:32:36.918Z,2.45
2022-10-11T02:35:04.920Z,2.17
2022-10-11T02:37:50.539Z,2.60
2022-10-11T02:40:40.311Z,2.58
2022-10-11T02:43:24.144Z,2.05
2022-10-11T02:45:54.360Z,2.17
2022-10-11T02:48:23.611Z,2.20
2022-10-11T02:50:51.268Z,2.97
2022-10-11T02:53:20.928Z,2.65
2022-10-11T02:55:49.405Z,2.50
2022-10-11T02:58:17.146Z,2.60
2022-10-11T03:00:44.853Z,2.33
2022-10-11T03:03:12.669Z,2.50
2022-10-11T03:05:42.108Z,2.72
2022-10-11T03:08:12.481Z,2.30
2022-10-11T03:10:41.400Z,2.30
2022-10-11T03:13:10.024Z,2.50
2022-10-11T03:15:40.165Z,2.45
2022-10-11T03:18:08.003Z,2.25
2022-10-11T03:20:37.420Z,2.15
2022-10-11T03:23:05.210Z,2.25
2022-10-11T03:25:32.857Z,2.50
2022-10-11T03:28:00.993Z,2.70
2022-10-11T03:30:28.863Z,3.00
2022-10-11T03:32:56.478Z,2.03
2022-10-11T03:35:24.121Z,2.42
2022-10-11T03:37:51.770Z,2.92
2022-10-11T03:40:19.401Z,2.40
2022-10-11T03:42:46.972Z,2.25
2022-10-11T03:45:14.721Z,2.33
2022-10-11T03:47:42.331Z,2.08
2022-10-11T03:50:10.117Z,2.65
2022-10-11T03:52:37.784Z,2.35
2022-10-11T03:55:06.589Z,2.20
2022-10-11T03:57:34.308Z,2.60
2022-10-11T04:00:02.169Z,2.50
2022-10-11T04:02:35.805Z,2.90
2022-10-11T04:05:07.277Z,2.70
2022-10-11T04:07:36.849Z,2.42
2022-10-11T04:10:05.292Z,2.47
2022-10-11T04:12:33.196Z,2.63
2022-10-11T04:15:01.629Z,2.58
2022-10-11T04:17:30.321Z,2.58
2022-10-11T04:19:58.018Z,2.88
2022-10-11T04:22:25.666Z,3.00
2022-10-11T04:24:54.293Z,2.92
2022-10-11T04:27:21.963Z,2.83
2022-10-11T04:29:49.674Z,2.70
2022-10-11T04:32:17.240Z,3.00
2022-10-11T04:34:44.992Z,2.97
2022-10-11T04:37:12.829Z,2.92
2022-10-11T04:39:40.410Z,2.00
2022-10-11T04:42:08.864Z,2.40
2022-10-11T04:44:37.241Z,2.17
2022-10-11T04:47:05.192Z,2.55
2022-10-11T04:49:32.955Z,2.08
2022-10-11T04:52:00.489Z,2.58
2022-10-11T04:54:28.635Z,1.63
2022-10-11T04:56:56.373Z,2.67
2022-10-11T04:59:24.735Z,2.90
2022-10-11T05:01:52.274Z,2.67
2022-10-11T05:04:20.001Z,1.80
2022-10-11T05:06:50.315Z,2.63
2022-10-11T05:09:17.921Z,2.58
2022-10-11T05:11:45.496Z,2.92
2022-10-11T05:14:13.226Z,1.90
2022-10-11T05:16:42.106Z,2.00
2022-10-11T05:19:10.484Z,2.30
2022-10-11T05:21:38.141Z,2.60
2022-10-11T05:24:06.374Z,2.60
2022-10-11T05:26:34.310Z,2.20
2022-10-11T05:29:01.927Z,2.38
2022-10-11T05:31:29.993Z,2.83
2022-10-11T05:33:57.713Z,1.83
2022-10-11T05:36:25.301Z,2.42
2022-10-11T05:38:53.449Z,1.73
2022-10-11T05:41:21.219Z,1.95
2022-10-11T05:43:48.899Z,2.40
2022-10-11T05:46:16.786Z,2.38
2022-10-11T05:48:44.405Z,1.73
2022-10-11T05:51:12.143Z,2.38
2022-10-11T05:53:39.969Z,2.50
2022-10-11T05:56:18.176Z,1.77
2022-10-11T05:58:46.313Z,2.42
2022-10-11T06:01:21.187Z,2.65
2022-10-11T06:03:48.827Z,2.20
2022-10-11T06:06:16.497Z,2.50
2022-10-11T06:08:44.381Z,2.78
2022-10-11T06:11:15.759Z,2.72
2022-10-11T06:13:44.561Z,2.10
2022-10-11T06:16:12.332Z,2.95
2022-10-11T06:18:40.062Z,2.38
2022-10-11T06:21:07.716Z,2.13
2022-10-11T06:23:35.489Z,2.55
2022-10-11T06:26:06.262Z,2.03
2022-10-11T06:28:34.956Z,2.58
2022-10-11T06:31:03.801Z,2.60
2022-10-11T06:33:31.681Z,3.08
2022-10-11T06:36:18.008Z,2.47
2022-10-11T06:38:46.303Z,2.47
2022-10-11T06:41:18.414Z,2.30
2022-10-11T06:43:51.335Z,2.47
2022-10-11T06:46:19.625Z,2.75
2022-10-11T06:48:47.760Z,2.60
2022-10-11T06:51:16.565Z,2.55
2022-10-11T06:53:44.203Z,2.67
2022-10-11T06:56:12.472Z,2.20
2022-10-11T06:58:40.007Z,3.10
2022-10-11T07:01:09.670Z,2.13
2022-10-11T07:03:37.236Z,2.60
2022-10-11T07:06:10.731Z,2.45
2022-10-11T07:08:39.513Z,2.95
2022-10-11T07:11:11.279Z,2.83
2022-10-11T07:13:38.944Z,1.90
2022-10-11T07:16:12.716Z,2.47
2022-10-11T07:18:40.450Z,2.30
2022-10-11T07:21:11.483Z,2.35
2022-10-11T07:23:39.398Z,2.80
2022-10-11T07:26:07.718Z,2.58
2022-10-11T07:28:36.162Z,2.10
2022-10-11T07:31:14.695Z,1.92
2022-10-11T07:33:42.596Z,2.35
2022-10-11T07:36:10.904Z,2.90
2022-10-11T07:38:40.627Z,3.10
2022-10-11T07:41:08.773Z,3.78
2022-10-11T07:43:37.153Z,3.63
2022-10-11T07:46:05.466Z,3.30
2022-10-11T07:48:34.196Z,2.67
2022-10-11T07:51:20.841Z,2.50
2022-10-11T07:53:52.703Z,3.10
2022-10-11T07:56:22.329Z,2.25
2022-10-11T07:58:51.644Z,3.20
2022-10-11T08:01:19.435Z,3.70
2022-10-11T08:03:47.209Z,3.45
2022-10-11T08:06:15.753Z,2.97
2022-10-11T08:08:43.405Z,2.60
2022-10-11T08:11:22.812Z,2.55
2022-10-11T08:13:52.487Z,3.80
2022-10-11T08:16:20.971Z,3.45
2022-10-11T08:18:48.644Z,2.92
2022-10-11T08:21:17.854Z,2.70
2022-10-11T08:23:45.551Z,2.92
2022-10-11T08:26:14.231Z,3.22
2022-10-11T08:28:41.996Z,2.58
2022-10-11T08:31:12.612Z,2.70
2022-10-11T08:33:40.637Z,2.72
2022-10-11T08:36:09.547Z,1.92
2022-10-11T08:38:38.146Z,3.15
2022-10-11T08:41:49.857Z,2.90
2022-10-11T08:44:23.496Z,1.98
2022-10-11T08:46:56.962Z,2.50
2022-10-11T08:49:29.832Z,2.45
2022-10-11T08:52:02.696Z,2.35
2022-10-11T08:54:43.193Z,2.83
2022-10-11T08:57:15.231Z,2.47
2022-10-11T08:59:47.668Z,2.35
2022-10-11T09:02:55.648Z,2.13
2022-10-11T09:05:21.709Z,2.05
2022-10-11T09:08:22.411Z,2.80
2022-10-11T09:11:00.042Z,2.08
2022-10-11T09:13:42.457Z,2.42
2022-10-11T09:16:34.676Z,2.42
2022-10-11T09:19:14.254Z,2.30
2022-10-11T09:22:18.597Z,2.22
2022-10-11T09:25:09.231Z,2.47
2022-10-11T09:28:03.177Z,2.40
2022-10-11T09:30:31.384Z,2.38
2022-10-11T09:33:13.504Z,2.30
2022-10-11T09:35:44.991Z,2.20
2022-10-11T09:38:24.644Z,1.70
2022-10-11T09:41:14.028Z,1.98
2022-10-11T09:43:44.839Z,1.65
2022-10-11T09:46:57.164Z,2.13
2022-10-11T09:49:47.610Z,2.45
2022-10-11T09:52:16.712Z,2.33
2022-10-11T09:54:46.094Z,2.35
2022-10-11T09:57:33.683Z,2.33
2022-10-11T10:00:20.755Z,3.67
2022-10-11T10:02:50.662Z,2.40
2022-10-11T10:05:25.410Z,2.60
2022-10-11T10:08:10.843Z,1.65
2022-10-11T10:10:59.559Z,2.40
2022-10-11T10:13:47.064Z,2.25
2022-10-11T10:16:26.102Z,3.50
2022-10-11T10:18:54.023Z,2.80
2022-10-11T10:21:28.919Z,2.38
2022-10-11T10:23:57.081Z,1.98
2022-10-11T10:26:26.014Z,1.42
2022-10-11T10:28:59.444Z,2.63
2022-10-11T10:31:54.981Z,1.73
2022-10-11T10:34:34.172Z,2.83
2022-10-11T10:37:35.539Z,1.65
2022-10-11T10:40:24.669Z,2.05
2022-10-11T10:42:52.396Z,1.48
2022-10-11T10:45:21.732Z,1.70
2022-10-11T10:48:01.948Z,2.35
2022-10-11T10:50:53.870Z,1.30
2022-10-11T10:56:25.028Z,1.70
2022-10-11T10:58:56.674Z,1.60
2022-10-11T11:01:32.797Z,1.90
2022-10-11T11:04:15.461Z,1.60
2022-10-11T11:06:51.141Z,2.00
2022-10-11T11:09:25.660Z,1.50
2022-10-11T11:12:18.511Z,2.15
2022-10-11T11:14:56.593Z,1.98
2022-10-11T11:17:42.732Z,2.17
2022-10-11T11:20:40.850Z,1.90
2022-10-11T11:23:23.838Z,2.03
2022-10-11T11:26:22.704Z,2.00
2022-10-11T11:28:56.326Z,1.67
2022-10-11T11:31:33.076Z,1.77
2022-10-11T11:34:38.523Z,1.67
2022-10-11T11:37:19.320Z,1.73
2022-10-11T11:39:49.609Z,2.50
2022-10-11T11:42:26.209Z,2.13
2022-10-11T11:44:53.728Z,1.98
2022-10-11T11:47:32.640Z,2.05
2022-10-11T11:50:03.656Z,1.75
2022-10-11T11:52:39.936Z,1.90
2022-10-11T11:55:28.036Z,1.98
2022-10-11T11:58:14.440Z,1.90
2022-10-11T12:00:54.532Z,1.80
2022-10-11T12:03:25.725Z,1.95
2022-10-11T12:08:56.377Z,2.10
2022-10-11T12:11:37.329Z,2.22
2022-10-11T12:14:22.386Z,2.97
2022-10-11T12:17:12.687Z,2.45
2022-10-11T12:19:42.431Z,3.55
2022-10-11T12:22:29.141Z,2.47
2022-10-11T12:25:00.882Z,2.80
2022-10-11T12:27:44.715Z,3.15
2022-10-11T12:30:53.605Z,2.95
2022-10-11T12:33:26.412Z,3.10
2022-10-11T12:35:54.008Z,3.20
2022-10-11T12:38:24.509Z,2.75
2022-10-11T12:41:08.542Z,3.05
2022-10-11T12:43:57.226Z,3.13
2022-10-11T12:46:33.896Z,2.00
2022-10-11T12:49:16.927Z,2.72
2022-10-11T12:52:18.472Z,2.75
2022-10-11T12:54:51.583Z,2.45
2022-10-11T12:57:53.181Z,3.00
2022-10-11T13:03:03.598Z,3.10
2022-10-11T13:05:45.186Z,3.15
2022-10-11T13:08:21.677Z,3.35
2022-10-11T13:10:51.371Z,3.70
2022-10-11T13:13:27.019Z,3.88
2022-10-11T13:15:56.743Z,4.00
2022-10-11T13:18:25.341Z,3.75
2022-10-11T13:20:55.087Z,3.42
2022-10-11T13:23:34.676Z,3.28
2022-10-11T13:26:28.156Z,3.50
2022-10-11T13:28:56.481Z,2.83
2022-10-11T13:31:25.141Z,3.40
2022-10-11T13:33:55.227Z,3.53
2022-10-11T13:36:24.708Z,3.95
2022-10-11T13:38:59.776Z,3.85
2022-10-11T13:41:29.966Z,3.30
2022-10-11T13:43:58.509Z,3.65
2022-10-11T13:46:27.111Z,3.45
2022-10-11T13:49:03.382Z,3.28
2022-10-11T13:51:35.195Z,3.28
2022-10-11T13:54:10.405Z,3.88
2022-10-11T13:56:46.705Z,3.15
2022-10-11T13:59:24.896Z,2.72
2022-10-11T14:01:57.907Z,3.50
2022-10-11T14:04:29.469Z,3.30
2022-10-11T14:06:58.745Z,3.45
2022-10-11T14:09:30.548Z,3.15
2022-10-11T14:12:26.072Z,3.30
2022-10-11T14:14:53.629Z,2.88
2022-10-11T14:17:22.448Z,3.30
2022-10-11T14:20:11.959Z,3.30
2022-10-11T14:22:40.396Z,2.97
2022-10-11T14:25:08.053Z,3.45
2022-10-11T14:27:37.031Z,3.05
2022-10-11T14:30:27.417Z,3.13
2022-10-11T14:32:56.469Z,2.88
2022-10-11T14:35:30.062Z,3.40
2022-10-11T14:37:57.654Z,3.83
2022-10-11T14:40:27.109Z,4.53
2022-10-11T14:42:55.145Z,4.20
2022-10-11T14:45:22.736Z,3.92
2022-10-11T14:47:51.053Z,4.10
2022-10-11T14:50:27.830Z,4.30
2022-10-11T14:52:55.712Z,3.70
2022-10-11T14:55:23.588Z,4.10
2022-10-11T14:57:51.286Z,4.22
2022-10-11T15:00:20.727Z,3.60
2022-10-11T15:02:49.649Z,3.97
2022-10-11T15:05:17.240Z,4.50
2022-10-11T15:07:44.829Z,3.78
2022-10-11T15:10:23.172Z,4.00
2022-10-11T15:12:51.271Z,4.20
2022-10-11T15:15:21.225Z,3.60
2022-10-11T15:17:53.712Z,4.28
2022-10-11T15:20:41.413Z,3.65
2022-10-11T15:23:12.394Z,4.55
2022-10-11T15:25:40.663Z,5.07
2022-10-11T15:28:08.856Z,4.35
2022-10-11T15:30:41.265Z,4.70
2022-10-11T15:33:10.018Z,4.50
2022-10-11T15:35:37.573Z,4.38
2022-10-11T15:38:05.137Z,4.90
2022-10-11T15:40:37.086Z,4.53
2022-10-11T15:43:04.741Z,4.22
2022-10-11T15:45:32.391Z,4.15
2022-10-11T15:48:00.723Z,4.50
2022-10-11T15:50:34.608Z,4.60
2022-10-11T15:53:05.328Z,4.20
2022-10-11T15:55:34.232Z,4.67
2022-10-11T15:58:02.277Z,4.75
2022-10-11T16:00:30.228Z,4.57
2022-10-11T16:02:58.425Z,4.97
2022-10-11T16:05:26.853Z,4.22
2022-10-11T16:07:54.468Z,4.15
2022-10-11T16:10:22.158Z,4.38
2022-10-11T16:12:50.189Z,5.13
2022-10-11T16:15:17.933Z,6.05
2022-10-11T16:17:47.459Z,5.68
2022-10-11T16:20:15.927Z,5.25
2022-10-11T16:22:43.748Z,5.80
2022-10-11T16:25:13.016Z,5.88
2022-10-11T16:27:41.364Z,5.00
2022-10-11T16:30:12.005Z,5.75
2022-10-11T16:32:41.143Z,6.10
2022-10-11T16:35:09.230Z,6.18
2022-10-11T16:37:36.802Z,6.03
2022-10-11T16:40:08.491Z,6.20
2022-10-11T16:42:37.769Z,5.82
2022-10-11T16:45:06.636Z,7.13
2022-10-11T16:47:34.505Z,6.55
2022-10-11T16:50:02.239Z,5.90
2022-10-11T16:52:30.455Z,6.00
2022-10-11T16:54:58.205Z,6.90
2022-10-11T16:57:25.833Z,6.30
2022-10-11T16:59:53.431Z,7.10
2022-10-11T17:02:28.755Z,6.10
2022-10-11T17:04:59.851Z,7.10
2022-10-11T17:07:28.642Z,7.00
2022-10-11T17:09:56.333Z,5.78
2022-10-11T17:12:24.447Z,5.55
2022-10-11T17:14:55.559Z,5.75
2022-10-11T17:17:23.104Z,5.40
2022-10-11T17:19:50.654Z,5.03
2022-10-11T17:22:19.034Z,6.25
2022-10-11T17:24:47.558Z,8.77
2022-10-11T17:27:15.218Z,5.47
2022-10-11T17:29:42.820Z,4.15
2022-10-11T17:32:10.462Z,4.53
2022-10-11T17:34:38.163Z,3.97
2022-10-11T17:37:06.285Z,3.20
2022-10-11T17:39:34.248Z,3.03
2022-10-11T17:42:07.359Z,3.55
2022-10-11T17:44:36.247Z,3.40
2022-10-11T17:47:04.336Z,3.40
2022-10-11T17:49:33.569Z,3.05
2022-10-11T17:52:01.368Z,3.60
2022-10-11T17:54:28.957Z,2.65
2022-10-11T17:56:58.856Z,2.85
2022-10-11T17:59:30.767Z,3.40
2022-10-11T18:01:58.541Z,3.67
2022-10-11T18:04:29.604Z,2.40
2022-10-11T18:06:57.339Z,3.03
2022-10-11T18:09:42.021Z,2.53
2022-10-11T18:12:10.488Z,3.17
2022-10-11T18:14:38.117Z,2.80
2022-10-11T18:17:05.774Z,3.22
2022-10-11T18:19:33.611Z,2.90
2022-10-11T18:22:05.979Z,2.80
2022-10-11T18:24:34.997Z,2.13
2022-10-11T18:27:02.706Z,1.92
2022-10-11T18:29:30.935Z,2.75
2022-10-11T18:31:58.590Z,2.78
2022-10-11T18:34:26.372Z,2.75
2022-10-11T18:36:54.017Z,2.45
2022-10-11T18:39:22.224Z,2.25
2022-10-11T18:41:49.957Z,2.60
2022-10-11T18:44:17.584Z,2.40
2022-10-11T18:46:45.391Z,2.63
2022-10-11T18:49:13.674Z,2.30
2022-10-11T18:51:42.151Z,2.50
2022-10-11T18:54:13.892Z,2.55
2022-10-11T18:56:45.455Z,3.58
2022-10-11T18:59:13.230Z,2.83
2022-10-11T19:01:42.212Z,3.13
2022-10-11T19:04:10.625Z,2.95
2022-10-11T19:06:39.930Z,3.28
2022-10-11T19:09:11.890Z,2.72
2022-10-11T19:11:41.929Z,2.95
2022-10-11T19:14:11.859Z,3.90
2022-10-11T19:16:45.597Z,3.78
2022-10-11T19:19:13.342Z,3.88
2022-10-11T19:21:40.960Z,2.80
2022-10-11T19:24:09.060Z,2.95
2022-10-11T19:26:38.741Z,2.35
2022-10-11T19:29:11.643Z,2.47
2022-10-11T19:31:44.698Z,1.85
2022-10-11T19:34:12.280Z,2.28
2022-10-11T19:36:42.409Z,1.92
2022-10-11T19:39:14.200Z,2.17
2022-10-11T19:41:42.088Z,2.03
2022-10-11T19:44:11.014Z,2.85
2022-10-11T19:46:51.096Z,2.95
2022-10-11T19:49:22.867Z,3.00
2022-10-11T19:51:50.962Z,2.45
2022-10-11T19:54:18.615Z,3.03
2022-10-11T19:56:47.179Z,3.05
2022-10-11T19:59:15.109Z,2.72
2022-10-11T20:01:45.500Z,3.15
2022-10-11T20:04:39.548Z,3.25
2022-10-11T20:07:03.592Z,3.17
2022-10-11T20:09:31.586Z,3.22
2022-10-11T20:11:59.208Z,4.07
2022-10-11T20:14:26.880Z,4.38
2022-10-11T20:16:54.615Z,4.55
2022-10-11T20:19:27.868Z,16.50
2022-10-11T20:21:58.135Z,4.53
2022-10-11T20:24:29.033Z,3.00
2022-10-11T20:26:56.715Z,3.00
2022-10-11T20:29:25.569Z,2.50
2022-10-11T20:31:53.372Z,2.75
2022-10-11T20:34:20.993Z,2.90
2022-10-11T20:36:49.472Z,2.72
2022-10-11T20:39:18.022Z,2.75
2022-10-11T20:41:45.755Z,2.60
2022-10-11T20:44:16.011Z,3.17
2022-10-11T20:46:43.668Z,2.85
2022-10-11T20:49:11.612Z,3.13
2022-10-11T20:51:41.623Z,3.17
2022-10-11T20:54:10.878Z,3.10
2022-10-11T20:56:39.256Z,3.30
2022-10-11T20:59:07.021Z,3.05
2022-10-11T21:01:37.301Z,2.85
2022-10-11T21:04:05.386Z,2.90
2022-10-11T21:06:33.524Z,2.78
2022-10-11T21:09:01.351Z,3.17
2022-10-11T21:11:31.317Z,2.65
2022-10-11T21:13:59.989Z,2.63
2022-10-11T21:16:32.452Z,3.00
2022-10-11T21:19:00.621Z,3.17
2022-10-11T21:21:28.663Z,3.00
2022-10-11T21:23:57.091Z,3.35
2022-10-11T21:26:24.738Z,3.60
2022-10-11T21:28:54.293Z,2.92
2022-10-11T21:31:22.417Z,3.35
2022-10-11T21:33:50.865Z,3.20
2022-10-11T21:36:20.063Z,3.28
2022-10-11T21:38:48.148Z,3.20
2022-10-11T21:41:20.608Z,2.83
2022-10-11T21:43:48.354Z,3.20
2022-10-11T21:46:47.517Z,3.60
2022-10-11T21:49:15.168Z,2.95
2022-10-11T21:51:43.862Z,3.58
2022-10-11T21:54:11.721Z,3.00
2022-10-11T21:56:39.321Z,2.88
2022-10-11T21:59:11.030Z,3.58
2022-10-11T22:01:40.917Z,3.10
2022-10-11T22:04:09.639Z,3.30
2022-10-11T22:06:38.155Z,3.42
2022-10-11T22:09:06.639Z,3.60
2022-10-11T22:11:34.650Z,4.07
2022-10-11T22:14:03.335Z,4.15
2022-10-11T22:16:31.119Z,4.55
2022-10-11T22:19:00.171Z,4.55
2022-10-11T22:21:28.126Z,5.20
2022-10-11T22:23:56.145Z,5.47
2022-10-11T22:26:26.148Z,4.93
2022-10-11T22:28:53.954Z,4.78
2022-10-11T22:31:22.048Z,4.40
2022-10-11T22:33:53.351Z,5.30
2022-10-11T22:36:20.903Z,5.13
2022-10-11T22:38:49.534Z,4.50
2022-10-11T22:41:17.303Z,5.55
2022-10-11T22:43:45.522Z,4.85
2022-10-11T22:46:13.464Z,4.43
2022-10-11T22:48:41.043Z,4.50
2022-10-11T22:51:08.633Z,4.90
2022-10-11T22:53:36.381Z,5.38
2022-10-11T22:56:04.371Z,5.30
2022-10-11T22:58:34.345Z,5.15
2022-10-11T23:01:09.277Z,4.72
2022-10-11T23:03:37.052Z,4.68
2022-10-11T23:06:05.337Z,4.10
2022-10-11T23:08:33.064Z,5.13
2022-10-11T23:11:07.414Z,4.70
2022-10-11T23:13:35.204Z,4.65
2022-10-11T23:16:08.588Z,5.40
2022-10-11T23:18:42.221Z,4.78
2022-10-11T23:21:13.307Z,4.70
2022-10-11T23:23:41.127Z,4.55
2022-10-11T23:26:12.053Z,4.20
2022-10-11T23:28:39.676Z,3.85
2022-10-11T23:31:16.778Z,4.07
2022-10-11T23:33:45.161Z,4.32
2022-10-11T23:36:25.476Z,3.97
2022-10-11T23:38:54.698Z,4.15
2022-10-11T23:41:23.397Z,3.17
2022-10-11T23:43:51.205Z,4.00
2022-10-11T23:46:18.883Z,3.60
2022-10-11T23:48:47.005Z,3.70
2022-10-11T23:51:14.738Z,3.50
2022-10-11T23:53:42.438Z,3.78
2022-10-11T23:56:10.319Z,3.70
2022-10-11T23:58:38.274Z,3.92
